sensor_id;sensor_type;location;lat;lon;timestamp;P1;durP1;ratioP1;P2;durP2;ratioP2
3177;SDS011;38141;42.666;23.344;2023-06-14T00:02:12;15.83;;;9.50;;
3177;SDS011;38141;42.666;23.344;2023-06-14T00:04:39;22.67;;;13.60;;
3177;SDS011;38141;42.666;23.344;2023-06-14T00:07:06;18.63;;;12.00;;
3177;SDS011;38141;42.666;23.344;2023-06-14T00:09:34;17.20;;;10.10;;
3177;SDS011;38141;42.666;23.344;2023-06-14T00:12:00;26.00;;;15.43;;
3177;SDS011;38141;42.666;23.344;2023-06-14T00:14:27;15.97;;;10.30;;
3177;SDS011;38141;42.666;23.344;2023-06-14T00:16:56;16.70;;;10.70;;
3177;SDS011;38141;42.666;23.344;2023-06-14T00:19:23;12.80;;;8.60;;
3177;SDS011;38141;42.666;23.344;2023-06-14T00:21:50;15.13;;;9.70;;
3177;SDS011;38141;42.666;23.344;2023-06-14T00:24:18;11.60;;;8.50;;
3177;SDS011;38141;42.666;23.344;2023-06-14T00:26:45;13.80;;;9.53;;
3177;SDS011;38141;42.666;23.344;2023-06-14T00:29:12;15.57;;;9.40;;
3177;SDS011;38141;42.666;23.344;2023-06-14T00:31:39;12.40;;;7.67;;
3177;SDS011;38141;42.666;23.344;2023-06-14T00:34:07;10.73;;;7.07;;
3177;SDS011;38141;42.666;23.344;2023-06-14T00:36:34;10.93;;;7.30;;
3177;SDS011;38141;42.666;23.344;2023-06-14T00:39:01;11.77;;;7.43;;
3177;SDS011;38141;42.666;23.344;2023-06-14T00:41:28;13.33;;;7.90;;
3177;SDS011;38141;42.666;23.344;2023-06-14T00:43:55;15.40;;;8.23;;
3177;SDS011;38141;42.666;23.344;2023-06-14T00:46:22;10.63;;;7.50;;
3177;SDS011;38141;42.666;23.344;2023-06-14T00:48:49;12.17;;;8.10;;
3177;SDS011;38141;42.666;23.344;2023-06-14T00:51:18;12.70;;;7.90;;
3177;SDS011;38141;42.666;23.344;2023-06-14T00:53:45;10.97;;;7.33;;
3177;SDS011;38141;42.666;23.344;2023-06-14T00:56:13;18.53;;;11.97;;
3177;SDS011;38141;42.666;23.344;2023-06-14T00:58:40;26.00;;;16.10;;
3177;SDS011;38141;42.666;23.344;2023-06-14T01:01:07;18.93;;;11.00;;
3177;SDS011;38141;42.666;23.344;2023-06-14T01:03:34;41.13;;;26.33;;
3177;SDS011;38141;42.666;23.344;2023-06-14T01:06:08;44.00;;;27.07;;
3177;SDS011;38141;42.666;23.344;2023-06-14T01:08:47;20.67;;;13.50;;
3177;SDS011;38141;42.666;23.344;2023-06-14T01:11:24;17.87;;;12.30;;
3177;SDS011;38141;42.666;23.344;2023-06-14T01:13:57;15.40;;;8.53;;
3177;SDS011;38141;42.666;23.344;2023-06-14T01:16:28;21.97;;;13.87;;
3177;SDS011;38141;42.666;23.344;2023-06-14T01:18:56;33.47;;;18.33;;
3177;SDS011;38141;42.666;23.344;2023-06-14T01:21:24;13.67;;;8.87;;
3177;SDS011;38141;42.666;23.344;2023-06-14T01:23:54;14.67;;;9.43;;
3177;SDS011;38141;42.666;23.344;2023-06-14T01:26:22;17.43;;;11.70;;
3177;SDS011;38141;42.666;23.344;2023-06-14T01:28:49;16.57;;;9.43;;
3177;SDS011;38141;42.666;23.344;2023-06-14T01:31:18;17.30;;;10.80;;
3177;SDS011;38141;42.666;23.344;2023-06-14T01:33:47;13.07;;;9.37;;
3177;SDS011;38141;42.666;23.344;2023-06-14T01:36:15;12.00;;;8.37;;
3177;SDS011;38141;42.666;23.344;2023-06-14T01:38:43;15.40;;;8.20;;
3177;SDS011;38141;42.666;23.344;2023-06-14T01:41:12;8.77;;;6.10;;
3177;SDS011;38141;42.666;23.344;2023-06-14T01:43:40;10.07;;;6.70;;
3177;SDS011;38141;42.666;23.344;2023-06-14T01:46:08;8.37;;;6.27;;
3177;SDS011;38141;42.666;23.344;2023-06-14T01:48:36;25.20;;;7.43;;
3177;SDS011;38141;42.666;23.344;2023-06-14T01:51:04;11.43;;;6.83;;
3177;SDS011;38141;42.666;23.344;2023-06-14T01:53:31;9.73;;;6.37;;
3177;SDS011;38141;42.666;23.344;2023-06-14T01:55:58;10.47;;;6.80;;
3177;SDS011;38141;42.666;23.344;2023-06-14T01:58:26;10.40;;;6.73;;
3177;SDS011;38141;42.666;23.344;2023-06-14T02:00:53;11.27;;;7.00;;
3177;SDS011;38141;42.666;23.344;2023-06-14T02:03:21;12.20;;;6.50;;
3177;SDS011;38141;42.666;23.344;2023-06-14T02:05:48;9.30;;;6.53;;
3177;SDS011;38141;42.666;23.344;2023-06-14T02:08:15;10.03;;;6.33;;
3177;SDS011;38141;42.666;23.344;2023-06-14T02:10:42;8.70;;;6.60;;
3177;SDS011;38141;42.666;23.344;2023-06-14T02:13:08;10.30;;;6.27;;
3177;SDS011;38141;42.666;23.344;2023-06-14T02:15:37;10.47;;;6.60;;
3177;SDS011;38141;42.666;23.344;2023-06-14T02:18:04;7.57;;;5.47;;
3177;SDS011;38141;42.666;23.344;2023-06-14T02:20:33;9.07;;;5.50;;
3177;SDS011;38141;42.666;23.344;2023-06-14T02:22:59;9.10;;;6.10;;
3177;SDS011;38141;42.666;23.344;2023-06-14T02:25:27;11.10;;;5.80;;
3177;SDS011;38141;42.666;23.344;2023-06-14T02:27:54;9.97;;;5.97;;
3177;SDS011;38141;42.666;23.344;2023-06-14T02:30:21;9.23;;;6.30;;
3177;SDS011;38141;42.666;23.344;2023-06-14T02:32:49;7.90;;;5.73;;
3177;SDS011;38141;42.666;23.344;2023-06-14T02:35:16;8.97;;;6.17;;
3177;SDS011;38141;42.666;23.344;2023-06-14T02:37:43;8.53;;;6.17;;
3177;SDS011;38141;42.666;23.344;2023-06-14T02:40:10;9.50;;;6.40;;
3177;SDS011;38141;42.666;23.344;2023-06-14T02:42:37;8.70;;;6.10;;
3177;SDS011;38141;42.666;23.344;2023-06-14T02:45:04;9.53;;;6.67;;
3177;SDS011;38141;42.666;23.344;2023-06-14T02:47:35;9.40;;;6.50;;
3177;SDS011;38141;42.666;23.344;2023-06-14T02:50:03;7.40;;;6.07;;
3177;SDS011;38141;42.666;23.344;2023-06-14T02:52:32;8.63;;;6.10;;
3177;SDS011;38141;42.666;23.344;2023-06-14T02:54:59;9.23;;;6.43;;
3177;SDS011;38141;42.666;23.344;2023-06-14T02:57:26;12.60;;;6.73;;
3177;SDS011;38141;42.666;23.344;2023-06-14T02:59:52;9.97;;;6.10;;
3177;SDS011;38141;42.666;23.344;2023-06-14T03:02:19;10.50;;;7.13;;
3177;SDS011;38141;42.666;23.344;2023-06-14T03:04:46;9.80;;;6.67;;
3177;SDS011;38141;42.666;23.344;2023-06-14T03:07:14;12.27;;;8.87;;
3177;SDS011;38141;42.666;23.344;2023-06-14T03:09:44;12.40;;;8.90;;
3177;SDS011;38141;42.666;23.344;2023-06-14T03:12:11;11.20;;;8.60;;
3177;SDS011;38141;42.666;23.344;2023-06-14T03:14:38;11.23;;;8.00;;
3177;SDS011;38141;42.666;23.344;2023-06-14T03:17:05;10.00;;;6.97;;
3177;SDS011;38141;42.666;23.344;2023-06-14T03:19:33;10.40;;;6.60;;
3177;SDS011;38141;42.666;23.344;2023-06-14T03:22:00;12.47;;;7.33;;
3177;SDS011;38141;42.666;23.344;2023-06-14T03:24:28;13.43;;;6.90;;
3177;SDS011;38141;42.666;23.344;2023-06-14T03:27:01;10.10;;;6.47;;
3177;SDS011;38141;42.666;23.344;2023-06-14T03:29:28;9.37;;;6.33;;
3177;SDS011;38141;42.666;23.344;2023-06-14T03:31:56;11.07;;;7.20;;
3177;SDS011;38141;42.666;23.344;2023-06-14T03:34:25;10.13;;;6.23;;
3177;SDS011;38141;42.666;23.344;2023-06-14T03:36:52;18.40;;;6.90;;
3177;SDS011;38141;42.666;23.344;2023-06-14T03:39:19;9.53;;;6.40;;
3177;SDS011;38141;42.666;23.344;2023-06-14T03:41:47;9.53;;;6.13;;
3177;SDS011;38141;42.666;23.344;2023-06-14T03:44:15;8.40;;;5.83;;
3177;SDS011;38141;42.666;23.344;2023-06-14T03:46:43;8.07;;;6.03;;
3177;SDS011;38141;42.666;23.344;2023-06-14T03:49:10;10.53;;;6.70;;
3177;SDS011;38141;42.666;23.344;2023-06-14T03:51:37;8.93;;;6.20;;
3177;SDS011;38141;42.666;23.344;2023-06-14T03:54:05;9.27;;;6.80;;
3177;SDS011;38141;42.666;23.344;2023-06-14T03:56:31;11.87;;;6.60;;
3177;SDS011;38141;42.666;23.344;2023-06-14T03:59:00;9.90;;;6.90;;
3177;SDS011;38141;42.666;23.344;2023-06-14T04:01:26;9.30;;;7.10;;
3177;SDS011;38141;42.666;23.344;2023-06-14T04:03:55;11.47;;;8.23;;
3177;SDS011;38141;42.666;23.344;2023-06-14T04:06:22;11.33;;;6.97;;
3177;SDS011;38141;42.666;23.344;2023-06-14T04:08:57;10.47;;;6.73;;
3177;SDS011;38141;42.666;23.344;2023-06-14T04:11:27;10.60;;;7.50;;
3177;SDS011;38141;42.666;23.344;2023-06-14T04:13:54;14.90;;;8.17;;
3177;SDS011;38141;42.666;23.344;2023-06-14T04:16:22;13.30;;;7.13;;
3177;SDS011;38141;42.666;23.344;2023-06-14T04:18:49;11.23;;;6.83;;
3177;SDS011;38141;42.666;23.344;2023-06-14T04:21:17;10.80;;;6.20;;
3177;SDS011;38141;42.666;23.344;2023-06-14T04:23:44;10.00;;;6.93;;
3177;SDS011;38141;42.666;23.344;2023-06-14T04:26:11;10.30;;;7.00;;
3177;SDS011;38141;42.666;23.344;2023-06-14T04:28:38;15.60;;;7.67;;
3177;SDS011;38141;42.666;23.344;2023-06-14T04:31:06;16.27;;;6.97;;
3177;SDS011;38141;42.666;23.344;2023-06-14T04:33:34;13.13;;;8.20;;
3177;SDS011;38141;42.666;23.344;2023-06-14T04:36:08;17.73;;;8.10;;
3177;SDS011;38141;42.666;23.344;2023-06-14T04:38:35;11.43;;;7.17;;
3177;SDS011;38141;42.666;23.344;2023-06-14T04:41:02;12.20;;;7.37;;
3177;SDS011;38141;42.666;23.344;2023-06-14T04:43:29;12.93;;;7.37;;
3177;SDS011;38141;42.666;23.344;2023-06-14T04:45:57;9.13;;;7.30;;
3177;SDS011;38141;42.666;23.344;2023-06-14T04:48:23;19.33;;;7.50;;
3177;SDS011;38141;42.666;23.344;2023-06-14T04:50:52;11.90;;;6.70;;
3177;SDS011;38141;42.666;23.344;2023-06-14T04:53:19;12.70;;;7.63;;
3177;SDS011;38141;42.666;23.344;2023-06-14T04:55:48;9.63;;;7.33;;
3177;SDS011;38141;42.666;23.344;2023-06-14T04:58:15;14.03;;;6.87;;
3177;SDS011;38141;42.666;23.344;2023-06-14T05:00:43;15.37;;;7.00;;
3177;SDS011;38141;42.666;23.344;2023-06-14T05:03:10;11.17;;;7.37;;
3177;SDS011;38141;42.666;23.344;2023-06-14T05:05:38;12.63;;;7.57;;
3177;SDS011;38141;42.666;23.344;2023-06-14T05:08:07;11.23;;;7.17;;
3177;SDS011;38141;42.666;23.344;2023-06-14T05:10:34;9.80;;;7.53;;
3177;SDS011;38141;42.666;23.344;2023-06-14T05:13:01;9.17;;;6.87;;
3177;SDS011;38141;42.666;23.344;2023-06-14T05:15:28;14.43;;;8.13;;
3177;SDS011;38141;42.666;23.344;2023-06-14T05:17:55;10.67;;;8.00;;
3177;SDS011;38141;42.666;23.344;2023-06-14T05:20:22;17.80;;;9.13;;
3177;SDS011;38141;42.666;23.344;2023-06-14T05:22:51;12.90;;;8.33;;
3177;SDS011;38141;42.666;23.344;2023-06-14T05:25:20;12.97;;;8.07;;
3177;SDS011;38141;42.666;23.344;2023-06-14T05:27:47;10.23;;;7.00;;
3177;SDS011;38141;42.666;23.344;2023-06-14T05:30:15;16.33;;;8.33;;
3177;SDS011;38141;42.666;23.344;2023-06-14T05:32:41;12.93;;;7.70;;
3177;SDS011;38141;42.666;23.344;2023-06-14T05:35:08;13.17;;;7.40;;
3177;SDS011;38141;42.666;23.344;2023-06-14T05:37:35;9.43;;;7.40;;
3177;SDS011;38141;42.666;23.344;2023-06-14T05:40:02;13.90;;;9.45;;
3177;SDS011;38141;42.666;23.344;2023-06-14T05:42:32;14.83;;;9.20;;
3177;SDS011;38141;42.666;23.344;2023-06-14T05:44:59;20.17;;;9.97;;
3177;SDS011;38141;42.666;23.344;2023-06-14T05:47:26;15.63;;;9.70;;
3177;SDS011;38141;42.666;23.344;2023-06-14T05:49:53;12.77;;;9.93;;
3177;SDS011;38141;42.666;23.344;2023-06-14T05:52:20;15.50;;;10.17;;
3177;SDS011;38141;42.666;23.344;2023-06-14T05:54:47;13.07;;;8.93;;
3177;SDS011;38141;42.666;23.344;2023-06-14T05:57:14;18.67;;;10.70;;
3177;SDS011;38141;42.666;23.344;2023-06-14T05:59:42;12.65;;;9.95;;
3177;SDS011;38141;42.666;23.344;2023-06-14T06:02:09;15.75;;;9.35;;
3177;SDS011;38141;42.666;23.344;2023-06-14T06:04:36;16.95;;;11.27;;
3177;SDS011;38141;42.666;23.344;2023-06-14T06:07:02;18.60;;;9.57;;
3177;SDS011;38141;42.666;23.344;2023-06-14T06:09:30;14.35;;;10.35;;
3177;SDS011;38141;42.666;23.344;2023-06-14T06:11:57;17.20;;;10.35;;
3177;SDS011;38141;42.666;23.344;2023-06-14T06:14:24;20.48;;;11.57;;
3177;SDS011;38141;42.666;23.344;2023-06-14T06:16:52;18.48;;;11.27;;
3177;SDS011;38141;42.666;23.344;2023-06-14T06:19:20;23.03;;;13.53;;
3177;SDS011;38141;42.666;23.344;2023-06-14T06:21:47;30.30;;;17.60;;
3177;SDS011;38141;42.666;23.344;2023-06-14T06:24:14;16.20;;;11.27;;
3177;SDS011;38141;42.666;23.344;2023-06-14T06:26:41;19.40;;;11.37;;
3177;SDS011;38141;42.666;23.344;2023-06-14T06:29:07;16.40;;;11.27;;
3177;SDS011;38141;42.666;23.344;2023-06-14T06:31:35;14.93;;;10.20;;
3177;SDS011;38141;42.666;23.344;2023-06-14T06:34:18;14.43;;;9.93;;
3177;SDS011;38141;42.666;23.344;2023-06-14T06:36:45;15.17;;;10.20;;
3177;SDS011;38141;42.666;23.344;2023-06-14T06:39:12;14.60;;;9.67;;
3177;SDS011;38141;42.666;23.344;2023-06-14T06:41:40;18.47;;;11.07;;
3177;SDS011;38141;42.666;23.344;2023-06-14T06:44:07;15.43;;;9.87;;
3177;SDS011;38141;42.666;23.344;2023-06-14T06:46:35;13.77;;;10.27;;
3177;SDS011;38141;42.666;23.344;2023-06-14T06:49:05;15.87;;;10.43;;
3177;SDS011;38141;42.666;23.344;2023-06-14T06:51:34;15.30;;;11.03;;
3177;SDS011;38141;42.666;23.344;2023-06-14T06:54:02;18.30;;;11.50;;
3177;SDS011;38141;42.666;23.344;2023-06-14T06:56:31;16.10;;;11.40;;
3177;SDS011;38141;42.666;23.344;2023-06-14T06:58:57;16.97;;;10.80;;
3177;SDS011;38141;42.666;23.344;2023-06-14T07:01:24;18.00;;;10.00;;
3177;SDS011;38141;42.666;23.344;2023-06-14T07:03:54;16.20;;;10.07;;
3177;SDS011;38141;42.666;23.344;2023-06-14T07:06:21;17.47;;;10.70;;
3177;SDS011;38141;42.666;23.344;2023-06-14T07:08:53;19.80;;;12.00;;
3177;SDS011;38141;42.666;23.344;2023-06-14T07:11:20;24.43;;;11.97;;
3177;SDS011;38141;42.666;23.344;2023-06-14T07:13:47;18.57;;;11.40;;
3177;SDS011;38141;42.666;23.344;2023-06-14T07:16:14;20.97;;;12.13;;
3177;SDS011;38141;42.666;23.344;2023-06-14T07:18:40;18.80;;;12.30;;
3177;SDS011;38141;42.666;23.344;2023-06-14T07:21:08;19.93;;;13.97;;
3177;SDS011;38141;42.666;23.344;2023-06-14T07:23:34;20.07;;;12.53;;
3177;SDS011;38141;42.666;23.344;2023-06-14T07:26:03;24.70;;;15.13;;
3177;SDS011;38141;42.666;23.344;2023-06-14T07:28:30;16.95;;;11.05;;
3177;SDS011;38141;42.666;23.344;2023-06-14T07:30:57;16.23;;;11.48;;
3177;SDS011;38141;42.666;23.344;2023-06-14T07:33:23;16.27;;;11.80;;
3177;SDS011;38141;42.666;23.344;2023-06-14T07:35:50;17.77;;;11.25;;
3177;SDS011;38141;42.666;23.344;2023-06-14T07:38:18;14.70;;;11.07;;
3177;SDS011;38141;42.666;23.344;2023-06-14T07:40:45;17.00;;;11.05;;
3177;SDS011;38141;42.666;23.344;2023-06-14T07:43:13;14.60;;;10.80;;
3177;SDS011;38141;42.666;23.344;2023-06-14T07:45:40;16.10;;;11.50;;
3177;SDS011;38141;42.666;23.344;2023-06-14T07:48:07;14.05;;;9.90;;
3177;SDS011;38141;42.666;23.344;2023-06-14T07:50:33;13.88;;;11.38;;
3177;SDS011;38141;42.666;23.344;2023-06-14T07:53:01;12.02;;;10.10;;
3177;SDS011;38141;42.666;23.344;2023-06-14T07:55:28;12.35;;;10.05;;
3177;SDS011;38141;42.666;23.344;2023-06-14T07:57:55;12.18;;;8.90;;
3177;SDS011;38141;42.666;23.344;2023-06-14T08:00:24;13.85;;;10.82;;
3177;SDS011;38141;42.666;23.344;2023-06-14T08:02:50;15.02;;;11.52;;
3177;SDS011;38141;42.666;23.344;2023-06-14T08:05:25;17.15;;;11.95;;
3177;SDS011;38141;42.666;23.344;2023-06-14T08:07:57;13.93;;;10.70;;
3177;SDS011;38141;42.666;23.344;2023-06-14T08:13:05;17.58;;;10.95;;
3177;SDS011;38141;42.666;23.344;2023-06-14T08:15:41;13.20;;;10.73;;
3177;SDS011;38141;42.666;23.344;2023-06-14T08:18:07;13.00;;;11.15;;
3177;SDS011;38141;42.666;23.344;2023-06-14T08:20:34;16.80;;;10.40;;
3177;SDS011;38141;42.666;23.344;2023-06-14T08:23:02;16.23;;;10.63;;
3177;SDS011;38141;42.666;23.344;2023-06-14T08:25:29;18.15;;;11.30;;
3177;SDS011;38141;42.666;23.344;2023-06-14T08:27:56;17.55;;;11.13;;
3177;SDS011;38141;42.666;23.344;2023-06-14T08:30:23;14.05;;;10.55;;
3177;SDS011;38141;42.666;23.344;2023-06-14T08:32:51;13.38;;;10.95;;
3177;SDS011;38141;42.666;23.344;2023-06-14T08:35:20;16.20;;;10.88;;
3177;SDS011;38141;42.666;23.344;2023-06-14T08:37:47;15.80;;;10.75;;
3177;SDS011;38141;42.666;23.344;2023-06-14T08:40:18;15.70;;;10.80;;
3177;SDS011;38141;42.666;23.344;2023-06-14T08:42:47;12.98;;;10.13;;
3177;SDS011;38141;42.666;23.344;2023-06-14T08:45:17;12.88;;;9.63;;
3177;SDS011;38141;42.666;23.344;2023-06-14T08:47:44;13.95;;;10.25;;
3177;SDS011;38141;42.666;23.344;2023-06-14T08:50:17;12.13;;;9.52;;
3177;SDS011;38141;42.666;23.344;2023-06-14T08:52:48;14.05;;;10.23;;
3177;SDS011;38141;42.666;23.344;2023-06-14T08:55:22;12.32;;;9.77;;
3177;SDS011;38141;42.666;23.344;2023-06-14T08:57:51;13.77;;;10.60;;
3177;SDS011;38141;42.666;23.344;2023-06-14T09:00:19;10.35;;;9.18;;
3177;SDS011;38141;42.666;23.344;2023-06-14T09:02:47;11.23;;;9.50;;
3177;SDS011;38141;42.666;23.344;2023-06-14T09:05:14;11.98;;;9.73;;
3177;SDS011;38141;42.666;23.344;2023-06-14T09:07:44;13.13;;;9.57;;
3177;SDS011;38141;42.666;23.344;2023-06-14T09:10:14;12.10;;;9.48;;
3177;SDS011;38141;42.666;23.344;2023-06-14T09:12:42;17.85;;;8.55;;
3177;SDS011;38141;42.666;23.344;2023-06-14T09:15:09;15.20;;;9.23;;
3177;SDS011;38141;42.666;23.344;2023-06-14T09:17:37;11.45;;;9.75;;
3177;SDS011;38141;42.666;23.344;2023-06-14T09:20:05;11.57;;;9.30;;
3177;SDS011;38141;42.666;23.344;2023-06-14T09:22:36;11.52;;;9.77;;
3177;SDS011;38141;42.666;23.344;2023-06-14T09:25:06;12.40;;;9.43;;
3177;SDS011;38141;42.666;23.344;2023-06-14T09:27:33;10.50;;;9.10;;
3177;SDS011;38141;42.666;23.344;2023-06-14T09:30:01;11.15;;;9.70;;
3177;SDS011;38141;42.666;23.344;2023-06-14T09:32:29;11.95;;;9.25;;
3177;SDS011;38141;42.666;23.344;2023-06-14T09:34:56;10.85;;;8.95;;
3177;SDS011;38141;42.666;23.344;2023-06-14T09:37:28;12.52;;;8.65;;
3177;SDS011;38141;42.666;23.344;2023-06-14T09:39:55;10.77;;;9.48;;
3177;SDS011;38141;42.666;23.344;2023-06-14T09:42:24;11.93;;;9.38;;
3177;SDS011;38141;42.666;23.344;2023-06-14T09:44:54;11.23;;;9.02;;
3177;SDS011;38141;42.666;23.344;2023-06-14T09:47:22;11.77;;;8.90;;
3177;SDS011;38141;42.666;23.344;2023-06-14T09:49:50;12.00;;;9.55;;
3177;SDS011;38141;42.666;23.344;2023-06-14T09:52:20;12.00;;;8.63;;
3177;SDS011;38141;42.666;23.344;2023-06-14T09:54:48;13.10;;;8.82;;
3177;SDS011;38141;42.666;23.344;2023-06-14T09:57:16;13.00;;;8.63;;
3177;SDS011;38141;42.666;23.344;2023-06-14T09:59:49;12.68;;;9.45;;
3177;SDS011;38141;42.666;23.344;2023-06-14T10:02:22;12.35;;;9.13;;
3177;SDS011;38141;42.666;23.344;2023-06-14T10:04:53;12.20;;;9.40;;
3177;SDS011;38141;42.666;23.344;2023-06-14T10:07:26;10.40;;;8.55;;
3177;SDS011;38141;42.666;23.344;2023-06-14T10:12:32;12.25;;;9.63;;
3177;SDS011;38141;42.666;23.344;2023-06-14T10:15:01;11.25;;;9.40;;
3177;SDS011;38141;42.666;23.344;2023-06-14T10:17:33;11.98;;;9.25;;
3177;SDS011;38141;42.666;23.344;2023-06-14T10:20:16;11.93;;;10.07;;
3177;SDS011;38141;42.666;23.344;2023-06-14T10:22:52;12.18;;;9.73;;
3177;SDS011;38141;42.666;23.344;2023-06-14T10:25:26;11.93;;;9.38;;
3177;SDS011;38141;42.666;23.344;2023-06-14T10:28:01;10.82;;;9.60;;
3177;SDS011;38141;42.666;23.344;2023-06-14T10:30:30;13.75;;;9.65;;
3177;SDS011;38141;42.666;23.344;2023-06-14T10:33:03;12.98;;;9.55;;
3177;SDS011;38141;42.666;23.344;2023-06-14T10:35:31;12.93;;;9.73;;
3177;SDS011;38141;42.666;23.344;2023-06-14T10:38:06;12.55;;;9.38;;
3177;SDS011;38141;42.666;23.344;2023-06-14T10:40:33;11.80;;;8.77;;
3177;SDS011;38141;42.666;23.344;2023-06-14T10:43:20;10.27;;;8.15;;
3177;SDS011;38141;42.666;23.344;2023-06-14T10:48:48;12.02;;;9.18;;
3177;SDS011;38141;42.666;23.344;2023-06-14T10:51:16;11.52;;;9.18;;
3177;SDS011;38141;42.666;23.344;2023-06-14T10:53:48;10.10;;;8.63;;
3177;SDS011;38141;42.666;23.344;2023-06-14T10:56:27;10.45;;;8.50;;
3177;SDS011;38141;42.666;23.344;2023-06-14T10:58:56;13.48;;;10.05;;
3177;SDS011;38141;42.666;23.344;2023-06-14T11:01:35;10.60;;;8.18;;
3177;SDS011;38141;42.666;23.344;2023-06-14T11:04:07;25.05;;;18.13;;
3177;SDS011;38141;42.666;23.344;2023-06-14T11:06:41;13.68;;;10.02;;
3177;SDS011;38141;42.666;23.344;2023-06-14T11:12:10;13.60;;;9.00;;
3177;SDS011;38141;42.666;23.344;2023-06-14T11:14:38;13.57;;;9.82;;
3177;SDS011;38141;42.666;23.344;2023-06-14T11:17:06;13.82;;;9.20;;
3177;SDS011;38141;42.666;23.344;2023-06-14T11:19:33;11.95;;;8.43;;
3177;SDS011;38141;42.666;23.344;2023-06-14T11:22:01;9.80;;;8.80;;
3177;SDS011;38141;42.666;23.344;2023-06-14T11:24:28;11.05;;;8.35;;
3177;SDS011;38141;42.666;23.344;2023-06-14T11:26:55;9.60;;;8.60;;
3177;SDS011;38141;42.666;23.344;2023-06-14T11:29:23;11.30;;;8.70;;
3177;SDS011;38141;42.666;23.344;2023-06-14T11:34:38;10.07;;;8.20;;
3177;SDS011;38141;42.666;23.344;2023-06-14T11:37:05;11.75;;;8.60;;
3177;SDS011;38141;42.666;23.344;2023-06-14T11:39:32;10.13;;;8.23;;
3177;SDS011;38141;42.666;23.344;2023-06-14T11:41:58;9.60;;;7.57;;
3177;SDS011;38141;42.666;23.344;2023-06-14T11:44:26;14.57;;;8.48;;
3177;SDS011;38141;42.666;23.344;2023-06-14T11:46:54;11.57;;;8.70;;
3177;SDS011;38141;42.666;23.344;2023-06-14T11:49:23;10.48;;;8.90;;
3177;SDS011;38141;42.666;23.344;2023-06-14T11:51:52;10.25;;;8.38;;
3177;SDS011;38141;42.666;23.344;2023-06-14T11:54:19;9.77;;;8.02;;
3177;SDS011;38141;42.666;23.344;2023-06-14T11:56:46;12.88;;;9.02;;
3177;SDS011;38141;42.666;23.344;2023-06-14T11:59:13;12.20;;;8.85;;
3177;SDS011;38141;42.666;23.344;2023-06-14T12:01:42;14.23;;;8.88;;
3177;SDS011;38141;42.666;23.344;2023-06-14T12:04:10;10.43;;;7.28;;
3177;SDS011;38141;42.666;23.344;2023-06-14T12:06:38;9.40;;;7.95;;
3177;SDS011;38141;42.666;23.344;2023-06-14T12:09:06;10.77;;;7.55;;
3177;SDS011;38141;42.666;23.344;2023-06-14T12:11:37;16.70;;;14.40;;
3177;SDS011;38141;42.666;23.344;2023-06-14T12:14:05;31.27;;;22.40;;
3177;SDS011;38141;42.666;23.344;2023-06-14T12:16:32;9.88;;;7.75;;
3177;SDS011;38141;42.666;23.344;2023-06-14T12:19:01;7.50;;;6.80;;
3177;SDS011;38141;42.666;23.344;2023-06-14T12:21:35;7.72;;;6.30;;
3177;SDS011;38141;42.666;23.344;2023-06-14T12:24:07;8.10;;;6.57;;
3177;SDS011;38141;42.666;23.344;2023-06-14T12:26:37;13.30;;;7.20;;
3177;SDS011;38141;42.666;23.344;2023-06-14T12:29:06;11.35;;;7.18;;
3177;SDS011;38141;42.666;23.344;2023-06-14T12:31:33;12.38;;;7.78;;
3177;SDS011;38141;42.666;23.344;2023-06-14T12:34:00;10.40;;;7.30;;
3177;SDS011;38141;42.666;23.344;2023-06-14T12:36:27;8.20;;;7.32;;
3177;SDS011;38141;42.666;23.344;2023-06-14T12:38:54;9.70;;;6.68;;
3177;SDS011;38141;42.666;23.344;2023-06-14T12:41:22;8.90;;;6.88;;
3177;SDS011;38141;42.666;23.344;2023-06-14T12:43:49;10.07;;;7.68;;
3177;SDS011;38141;42.666;23.344;2023-06-14T12:46:16;10.43;;;7.35;;
3177;SDS011;38141;42.666;23.344;2023-06-14T12:48:43;8.85;;;6.75;;
3177;SDS011;38141;42.666;23.344;2023-06-14T12:51:10;9.52;;;7.07;;
3177;SDS011;38141;42.666;23.344;2023-06-14T12:53:37;9.80;;;7.32;;
3177;SDS011;38141;42.666;23.344;2023-06-14T12:56:04;9.70;;;6.93;;
3177;SDS011;38141;42.666;23.344;2023-06-14T12:58:32;10.65;;;6.25;;
3177;SDS011;38141;42.666;23.344;2023-06-14T13:00:59;10.13;;;7.53;;
3177;SDS011;38141;42.666;23.344;2023-06-14T13:03:26;9.07;;;7.05;;
3177;SDS011;38141;42.666;23.344;2023-06-14T13:05:52;9.00;;;6.75;;
3177;SDS011;38141;42.666;23.344;2023-06-14T13:08:20;8.35;;;7.07;;
3177;SDS011;38141;42.666;23.344;2023-06-14T13:10:47;8.02;;;6.50;;
3177;SDS011;38141;42.666;23.344;2023-06-14T13:13:14;11.05;;;6.68;;
3177;SDS011;38141;42.666;23.344;2023-06-14T13:15:43;9.73;;;7.93;;
3177;SDS011;38141;42.666;23.344;2023-06-14T13:18:11;9.30;;;7.28;;
3177;SDS011;38141;42.666;23.344;2023-06-14T13:20:38;12.45;;;7.70;;
3177;SDS011;38141;42.666;23.344;2023-06-14T13:23:05;10.40;;;7.78;;
3177;SDS011;38141;42.666;23.344;2023-06-14T13:25:32;10.95;;;7.30;;
3177;SDS011;38141;42.666;23.344;2023-06-14T13:27:59;9.10;;;6.75;;
3177;SDS011;38141;42.666;23.344;2023-06-14T13:30:26;10.30;;;7.68;;
3177;SDS011;38141;42.666;23.344;2023-06-14T13:32:54;11.23;;;8.00;;
3177;SDS011;38141;42.666;23.344;2023-06-14T13:35:21;12.50;;;7.78;;
3177;SDS011;38141;42.666;23.344;2023-06-14T13:37:47;8.93;;;6.63;;
3177;SDS011;38141;42.666;23.344;2023-06-14T13:40:14;10.00;;;7.30;;
3177;SDS011;38141;42.666;23.344;2023-06-14T13:42:41;8.50;;;7.23;;
3177;SDS011;38141;42.666;23.344;2023-06-14T13:45:09;9.07;;;6.87;;
3177;SDS011;38141;42.666;23.344;2023-06-14T13:47:38;10.67;;;8.00;;
3177;SDS011;38141;42.666;23.344;2023-06-14T13:50:06;9.47;;;6.90;;
3177;SDS011;38141;42.666;23.344;2023-06-14T13:52:34;9.13;;;7.40;;
3177;SDS011;38141;42.666;23.344;2023-06-14T13:55:01;11.27;;;7.77;;
3177;SDS011;38141;42.666;23.344;2023-06-14T13:57:27;10.17;;;7.43;;
3177;SDS011;38141;42.666;23.344;2023-06-14T13:59:54;9.17;;;6.83;;
3177;SDS011;38141;42.666;23.344;2023-06-14T14:02:26;9.70;;;7.03;;
3177;SDS011;38141;42.666;23.344;2023-06-14T14:04:53;9.40;;;7.50;;
3177;SDS011;38141;42.666;23.344;2023-06-14T14:07:22;10.83;;;7.10;;
3177;SDS011;38141;42.666;23.344;2023-06-14T14:09:50;8.43;;;6.80;;
3177;SDS011;38141;42.666;23.344;2023-06-14T14:12:18;8.87;;;6.70;;
3177;SDS011;38141;42.666;23.344;2023-06-14T14:14:47;10.77;;;7.80;;
3177;SDS011;38141;42.666;23.344;2023-06-14T14:17:15;9.40;;;7.13;;
3177;SDS011;38141;42.666;23.344;2023-06-14T14:19:43;9.63;;;6.80;;
3177;SDS011;38141;42.666;23.344;2023-06-14T14:22:10;9.50;;;7.10;;
3177;SDS011;38141;42.666;23.344;2023-06-14T14:24:39;10.17;;;7.43;;
3177;SDS011;38141;42.666;23.344;2023-06-14T14:27:09;9.73;;;6.70;;
3177;SDS011;38141;42.666;23.344;2023-06-14T14:29:37;7.50;;;5.80;;
3177;SDS011;38141;42.666;23.344;2023-06-14T14:32:04;8.73;;;6.70;;
3177;SDS011;38141;42.666;23.344;2023-06-14T14:34:31;10.40;;;6.10;;
3177;SDS011;38141;42.666;23.344;2023-06-14T14:36:58;12.73;;;7.17;;
3177;SDS011;38141;42.666;23.344;2023-06-14T14:39:24;11.70;;;7.43;;
3177;SDS011;38141;42.666;23.344;2023-06-14T14:41:53;8.70;;;6.57;;
3177;SDS011;38141;42.666;23.344;2023-06-14T14:44:19;11.00;;;7.23;;
3177;SDS011;38141;42.666;23.344;2023-06-14T14:49:22;12.53;;;8.03;;
3177;SDS011;38141;42.666;23.344;2023-06-14T14:51:49;11.50;;;8.20;;
3177;SDS011;38141;42.666;23.344;2023-06-14T14:54:16;12.00;;;8.50;;
3177;SDS011;38141;42.666;23.344;2023-06-14T14:56:42;12.47;;;9.00;;